Time;durP1;ratioP1;P1;durP2;ratioP2;P2;SDS_P1;SDS_P2;PMS_P1;PMS_P2;Temp;Humidity;BMP_temperature;BMP_pressure;BME280_temperature;BME280_humidity;BME280_pressure;Samples;Min_cycle;Max_cycle;Signal;HPM_P1;HPM_P2
2022/10/27 00:00:39;;;;;;;;;;;13.40;99.90;;;;;;5022823;28;20409;-68
2022/10/27 00:03:05;;;;;;;;;;;13.40;99.90;;;;;;4968352;28;175536;-68
2022/10/27 00:05:32;;;;;;;;;;;13.40;99.90;;;;;;5036078;28;19925;-68
2022/10/27 00:07:58;;;;;;;;;;;13.40;99.90;;;;;;4976841;28;219025;-68
2022/10/27 00:10:24;;;;;;;;;;;13.40;99.90;;;;;;5041378;28;19937;-68
2022/10/27 00:12:50;;;;;;;;;;;13.30;99.90;;;;;;4963953;28;206271;-69
2022/10/27 00:15:16;;;;;;;;;;;13.30;99.90;;;;;;5033623;28;19975;-68
2022/10/27 00:17:43;;;;;;;;;;;13.30;99.90;;;;;;4980716;28;251058;-68
2022/10/27 00:20:10;;;;;;;;;;;13.30;99.90;;;;;;5056489;28;19921;-68
2022/10/27 00:22:36;;;;;;;;;;;13.30;99.90;;;;;;4989239;28;214962;-68
2022/10/27 00:25:02;;;;;;;;;;;13.30;99.90;;;;;;4999784;28;19921;-68
2022/10/27 00:27:28;;;;;;;;;;;13.30;99.90;;;;;;5022145;28;209568;-67
2022/10/27 00:29:54;;;;;;;;;;;13.20;99.90;;;;;;4974770;28;205305;-67
2022/10/27 00:32:20;;;;;;;;;;;13.20;99.90;;;;;;5021331;28;20266;-68
2022/10/27 00:34:46;;;;;;;;;;;13.20;99.90;;;;;;4973272;28;206880;-69
2022/10/27 00:37:12;;;;;;;;;;;13.20;99.90;;;;;;5023101;28;19921;-68
2022/10/27 00:39:38;;;;;;;;;;;13.20;99.90;;;;;;4954224;28;212734;-68
2022/10/27 00:42:04;;;;;;;;;;;13.10;99.90;;;;;;5021596;28;19933;-68
2022/10/27 00:44:30;;;;;;;;;;;13.10;99.90;;;;;;4959653;28;148607;-68
2022/10/27 00:46:57;;;;;;;;;;;13.10;99.90;;;;;;5035240;28;19925;-68
2022/10/27 00:49:29;;;;;;;;;;;13.10;99.90;;;;;;4973148;28;185640;-68
2022/10/27 00:52:03;;;;;;;;;;;13.00;99.90;;;;;;5022505;28;19917;-68
2022/10/27 00:54:32;;;;;;;;;;;13.00;99.90;;;;;;4950964;28;187003;-68
2022/10/27 00:56:58;;;;;;;;;;;13.00;99.90;;;;;;5004500;28;19921;-70
2022/10/27 00:59:24;;;;;;;;;;;12.90;99.90;;;;;;4954359;28;212890;-68
2022/10/27 01:01:51;;;;;;;;;;;12.90;99.90;;;;;;5023264;28;20440;-68
2022/10/27 01:04:19;;;;;;;;;;;12.80;99.90;;;;;;4949668;28;210348;-68
2022/10/27 01:06:45;;;;;;;;;;;12.80;99.90;;;;;;5053070;28;19921;-68
2022/10/27 01:09:11;;;;;;;;;;;12.80;99.90;;;;;;4961298;28;171444;-69
2022/10/27 01:11:37;;;;;;;;;;;12.80;99.90;;;;;;5017440;28;20396;-68
2022/10/27 01:14:04;;;;;;;;;;;12.80;99.90;;;;;;4948225;28;143512;-68
2022/10/27 01:16:33;;;;;;;;;;;12.80;99.90;;;;;;5047413;28;19921;-67
2022/10/27 01:19:17;;;;;;;;;;;12.90;99.90;;;;;;4951713;28;147580;-68
2022/10/27 01:21:56;;;;;;;;;;;12.90;99.90;;;;;;5016424;28;19921;-69
2022/10/27 01:24:28;;;;;;;;;;;12.90;99.90;;;;;;4972394;28;132524;-69
2022/10/27 01:26:58;;;;;;;;;;;13.00;99.90;;;;;;5020103;28;19925;-67
2022/10/27 01:29:29;;;;;;;;;;;13.00;99.90;;;;;;4996802;28;207540;-68
2022/10/27 01:32:02;;;;;;;;;;;13.00;99.90;;;;;;5017610;28;19943;-68
2022/10/27 01:34:34;;;;;;;;;;;13.10;99.90;;;;;;4938398;28;207804;-67
2022/10/27 01:37:00;;;;;;;;;;;13.10;99.90;;;;;;5055720;28;19924;-67
2022/10/27 01:39:36;;;;;;;;;;;13.10;99.90;;;;;;4974033;28;127785;-68
2022/10/27 01:42:11;;;;;;;;;;;13.10;99.90;;;;;;5021018;28;19928;-70
2022/10/27 01:44:42;;;;;;;;;;;13.10;99.90;;;;;;4947627;28;211379;-68
2022/10/27 01:47:09;;;;;;;;;;;13.10;99.90;;;;;;5021408;28;20306;-69
2022/10/27 01:49:35;;;;;;;;;;;13.10;99.90;;;;;;4973672;28;212674;-68
2022/10/27 01:52:03;;;;;;;;;;;13.20;99.90;;;;;;5019083;28;19928;-68
2022/10/27 01:54:29;;;;;;;;;;;13.20;99.90;;;;;;4964730;28;209067;-68
2022/10/27 01:57:33;;;;;;;;;;;13.20;99.90;;;;;;5020602;28;20063;-69
2022/10/27 02:00:04;;;;;;;;;;;13.20;99.90;;;;;;4969987;28;206994;-67
2022/10/27 02:03:05;;;;;;;;;;;13.20;99.90;;;;;;5010988;28;68066;-68
2022/10/27 02:05:52;;;;;;;;;;;13.20;99.90;;;;;;4893486;28;204051;-67
2022/10/27 02:08:22;;;;;;;;;;;13.10;99.90;;;;;;4946373;28;194205;-69
2022/10/27 02:11:02;;;;;;;;;;;13.10;99.90;;;;;;4991841;28;20018;-68
2022/10/27 02:13:30;;;;;;;;;;;13.10;99.90;;;;;;4942479;28;95668;-68
2022/10/27 02:15:59;;;;;;;;;;;13.10;99.90;;;;;;5004023;28;20383;-69
2022/10/27 02:18:28;;;;;;;;;;;13.10;99.90;;;;;;4946082;28;193542;-68
2022/10/27 02:20:56;;;;;;;;;;;13.20;99.90;;;;;;4983431;28;19917;-68
2022/10/27 02:23:22;;;;;;;;;;;13.10;99.90;;;;;;4924170;28;225387;-68
2022/10/27 02:26:10;;;;;;;;;;;13.10;99.90;;;;;;4989200;28;19929;-68
2022/10/27 02:28:44;;;;;;;;;;;13.10;99.90;;;;;;4913734;28;198888;-68
2022/10/27 02:31:11;;;;;;;;;;;13.10;99.90;;;;;;4982191;28;19925;-68
2022/10/27 02:33:37;;;;;;;;;;;13.10;99.90;;;;;;4913860;28;212262;-68
2022/10/27 02:36:04;;;;;;;;;;;13.10;99.90;;;;;;4978943;28;19940;-67
2022/10/27 02:38:30;;;;;;;;;;;13.10;99.90;;;;;;4913439;28;223370;-67
2022/10/27 02:40:56;;;;;;;;;;;13.10;99.90;;;;;;5003177;28;20882;-68
2022/10/27 02:43:21;;;;;;;;;;;13.10;99.90;;;;;;4980536;28;144743;-68
2022/10/27 02:45:47;;;;;;;;;;;13.10;99.90;;;;;;5037992;28;19921;-68
2022/10/27 02:48:13;;;;;;;;;;;13.10;99.90;;;;;;4962651;28;146124;-68
2022/10/27 02:50:39;;;;;;;;;;;13.00;99.90;;;;;;5010835;28;19917;-68
2022/10/27 02:53:05;;;;;;;;;;;13.00;99.90;;;;;;4971274;28;179776;-68
2022/10/27 02:55:32;;;;;;;;;;;13.00;99.90;;;;;;5052860;28;20302;-68
2022/10/27 02:57:58;;;;;;;;;;;13.00;99.90;;;;;;4981331;28;188040;-70
2022/10/27 03:00:24;;;;;;;;;;;13.00;99.90;;;;;;5020326;28;19921;-68
2022/10/27 03:02:50;;;;;;;;;;;13.00;99.90;;;;;;4953424;28;208078;-68
2022/10/27 03:05:16;;;;;;;;;;;13.10;99.90;;;;;;5018441;28;19920;-68
2022/10/27 03:07:43;;;;;;;;;;;13.10;99.90;;;;;;4969943;28;219546;-68
2022/10/27 03:10:09;;;;;;;;;;;13.00;99.90;;;;;;5028068;28;19940;-68
2022/10/27 03:12:35;;;;;;;;;;;13.00;99.90;;;;;;4995751;28;207143;-68
2022/10/27 03:15:01;;;;;;;;;;;13.00;99.90;;;;;;4997355;28;209960;-68
2022/10/27 03:17:27;;;;;;;;;;;12.90;99.90;;;;;;5025960;28;19921;-68
2022/10/27 03:19:53;;;;;;;;;;;12.90;99.90;;;;;;4973807;28;214873;-69
2022/10/27 03:22:19;;;;;;;;;;;12.90;99.90;;;;;;5026280;28;19917;-69
2022/10/27 03:24:45;;;;;;;;;;;12.90;99.90;;;;;;4978825;28;206549;-68
2022/10/27 03:27:11;;;;;;;;;;;12.90;99.90;;;;;;5023974;28;19983;-68
2022/10/27 03:29:37;;;;;;;;;;;12.90;99.90;;;;;;4959433;28;206266;-68
2022/10/27 03:32:03;;;;;;;;;;;12.90;99.90;;;;;;5021029;28;20564;-68
2022/10/27 03:34:29;;;;;;;;;;;12.90;99.90;;;;;;5008791;28;197254;-69
2022/10/27 03:36:55;;;;;;;;;;;12.90;99.90;;;;;;5022662;28;19924;-68
2022/10/27 03:39:21;;;;;;;;;;;12.90;99.90;;;;;;4985668;28;204869;-68
2022/10/27 03:41:46;;;;;;;;;;;12.90;99.90;;;;;;5007307;28;19932;-67
2022/10/27 03:44:12;;;;;;;;;;;12.80;99.90;;;;;;4967463;28;137622;-68
2022/10/27 03:46:38;;;;;;;;;;;12.90;99.90;;;;;;5020375;28;20341;-68
2022/10/27 03:49:04;;;;;;;;;;;12.80;99.90;;;;;;4955870;28;208050;-68
2022/10/27 03:51:30;;;;;;;;;;;12.80;99.90;;;;;;5009912;28;19922;-67
2022/10/27 03:53:56;;;;;;;;;;;12.80;99.90;;;;;;4967087;28;207249;-68
2022/10/27 03:56:22;;;;;;;;;;;12.80;99.90;;;;;;5018179;28;19921;-68
2022/10/27 03:58:48;;;;;;;;;;;12.70;99.90;;;;;;4973723;28;174018;-69
2022/10/27 04:01:14;;;;;;;;;;;12.70;99.90;;;;;;5013815;28;19925;-68
2022/10/27 04:03:41;;;;;;;;;;;12.70;99.90;;;;;;4965246;28;162347;-68
2022/10/27 04:06:07;;;;;;;;;;;12.70;99.90;;;;;;5038917;28;20302;-68
2022/10/27 04:08:33;;;;;;;;;;;12.60;99.90;;;;;;4973429;28;192185;-69
2022/10/27 04:10:59;;;;;;;;;;;12.60;99.90;;;;;;5015861;28;19927;-68
2022/10/27 04:13:25;;;;;;;;;;;12.60;99.90;;;;;;4966418;28;207153;-68
2022/10/27 04:15:51;;;;;;;;;;;12.60;99.90;;;;;;5036481;28;19966;-68
2022/10/27 04:18:17;;;;;;;;;;;12.60;99.90;;;;;;4998066;28;209050;-68
2022/10/27 04:20:43;;;;;;;;;;;12.60;99.90;;;;;;5039465;28;19921;-68
2022/10/27 04:23:09;;;;;;;;;;;12.60;99.90;;;;;;4978698;28;165535;-68
2022/10/27 04:25:35;;;;;;;;;;;12.50;99.90;;;;;;5021088;28;19925;-68
2022/10/27 04:28:05;;;;;;;;;;;12.50;99.90;;;;;;5002061;28;154638;-69
2022/10/27 04:30:31;;;;;;;;;;;12.50;99.90;;;;;;5005264;28;19944;-67
2022/10/27 04:32:57;;;;;;;;;;;12.50;99.90;;;;;;4976012;28;169666;-68
2022/10/27 04:35:24;;;;;;;;;;;12.50;99.90;;;;;;5016092;28;19924;-68
2022/10/27 04:37:50;;;;;;;;;;;12.50;99.90;;;;;;4981135;28;219422;-69
2022/10/27 04:40:16;;;;;;;;;;;12.50;99.90;;;;;;4993822;28;19916;-69
2022/10/27 04:42:43;;;;;;;;;;;12.50;99.90;;;;;;4957031;28;184684;-69
2022/10/27 04:45:09;;;;;;;;;;;12.50;99.90;;;;;;5036956;28;20309;-68
2022/10/27 04:47:35;;;;;;;;;;;12.50;99.90;;;;;;5027341;28;214665;-68
2022/10/27 04:50:01;;;;;;;;;;;12.50;99.90;;;;;;4997589;28;19924;-68
2022/10/27 04:52:27;;;;;;;;;;;12.50;99.90;;;;;;5022274;28;19925;-69
2022/10/27 04:54:53;;;;;;;;;;;12.60;99.90;;;;;;4959260;28;242956;-70
2022/10/27 04:57:19;;;;;;;;;;;12.50;99.90;;;;;;5022614;28;19924;-68
2022/10/27 04:59:45;;;;;;;;;;;12.60;99.90;;;;;;4954169;28;171447;-68
2022/10/27 05:02:11;;;;;;;;;;;12.60;99.90;;;;;;5019135;28;19918;-69
2022/10/27 05:04:37;;;;;;;;;;;12.60;99.90;;;;;;4957187;28;135862;-68
2022/10/27 05:07:03;;;;;;;;;;;12.60;99.90;;;;;;5022799;28;20417;-69
2022/10/27 05:09:29;;;;;;;;;;;12.50;99.90;;;;;;4960593;28;220837;-69
2022/10/27 05:11:55;;;;;;;;;;;12.60;99.90;;;;;;5043358;28;19967;-68
2022/10/27 05:14:21;;;;;;;;;;;12.60;99.90;;;;;;4974072;28;133876;-69
2022/10/27 05:16:47;;;;;;;;;;;12.60;99.90;;;;;;5006077;28;19922;-69
2022/10/27 05:19:13;;;;;;;;;;;12.50;99.90;;;;;;4973274;28;207393;-68
2022/10/27 05:21:39;;;;;;;;;;;12.50;99.90;;;;;;5016481;28;19961;-69
2022/10/27 05:24:05;;;;;;;;;;;12.50;99.90;;;;;;4990321;28;195356;-69
2022/10/27 05:26:30;;;;;;;;;;;12.50;99.90;;;;;;5000370;28;20313;-69
2022/10/27 05:28:56;;;;;;;;;;;12.50;99.90;;;;;;4945487;28;195002;-70
2022/10/27 05:31:22;;;;;;;;;;;12.50;99.90;;;;;;5008908;28;19928;-69
2022/10/27 05:33:48;;;;;;;;;;;12.50;99.90;;;;;;4999568;28;209839;-69
2022/10/27 05:36:14;;;;;;;;;;;12.50;99.90;;;;;;5028105;28;19921;-69
2022/10/27 05:38:41;;;;;;;;;;;12.60;99.90;;;;;;4997487;28;170968;-69
2022/10/27 05:41:07;;;;;;;;;;;12.60;99.90;;;;;;5015563;28;19920;-70
2022/10/27 05:43:33;;;;;;;;;;;12.60;99.90;;;;;;5006221;28;141676;-69
2022/10/27 05:45:59;;;;;;;;;;;12.60;99.90;;;;;;5046550;28;19925;-69
2022/10/27 05:48:25;;;;;;;;;;;12.60;99.90;;;;;;4961883;28;204210;-68
2022/10/27 05:50:54;;;;;;;;;;;12.70;99.90;;;;;;5019964;28;19928;-68
2022/10/27 05:53:20;;;;;;;;;;;12.70;99.90;;;;;;4995405;28;152318;-69
2022/10/27 05:55:46;;;;;;;;;;;12.70;99.90;;;;;;5032834;28;19921;-69
2022/10/27 05:58:12;;;;;;;;;;;12.80;99.90;;;;;;4944848;28;216136;-68
2022/10/27 06:00:38;;;;;;;;;;;12.80;99.90;;;;;;5006031;28;20302;-67
2022/10/27 06:03:06;;;;;;;;;;;12.80;99.90;;;;;;4965433;28;188370;-70
2022/10/27 06:05:34;;;;;;;;;;;12.80;99.90;;;;;;4989926;28;19918;-69
2022/10/27 06:08:00;;;;;;;;;;;12.80;99.90;;;;;;4971449;28;136120;-69
2022/10/27 06:10:28;;;;;;;;;;;12.80;99.90;;;;;;5004484;28;20416;-67
2022/10/27 06:13:01;;;;;;;;;;;12.80;99.90;;;;;;4980297;28;210262;-69
2022/10/27 06:15:27;;;;;;;;;;;12.90;99.90;;;;;;5038648;28;19921;-66
2022/10/27 06:17:53;;;;;;;;;;;12.90;99.90;;;;;;4977941;28;160773;-69
2022/10/27 06:20:19;;;;;;;;;;;13.00;99.90;;;;;;5003934;28;19914;-68
2022/10/27 06:22:45;;;;;;;;;;;13.00;99.90;;;;;;4977690;28;219844;-68
2022/10/27 06:25:11;;;;;;;;;;;13.00;99.90;;;;;;5015036;28;20271;-68
2022/10/27 06:27:37;;;;;;;;;;;13.00;99.90;;;;;;4968327;28;215637;-68
2022/10/27 06:30:03;;;;;;;;;;;13.00;99.90;;;;;;4993347;28;20259;-67
2022/10/27 06:32:29;;;;;;;;;;;13.00;99.90;;;;;;5012007;28;212681;-69
2022/10/27 06:34:56;;;;;;;;;;;13.00;99.90;;;;;;5000719;28;214898;-68
2022/10/27 06:37:21;;;;;;;;;;;13.10;99.90;;;;;;5017563;28;19971;-69
2022/10/27 06:39:47;;;;;;;;;;;13.10;99.90;;;;;;5011530;28;142242;-66
2022/10/27 06:42:13;;;;;;;;;;;13.00;99.90;;;;;;5023287;28;19923;-68
2022/10/27 06:44:39;;;;;;;;;;;13.10;99.90;;;;;;4993070;28;178193;-68
2022/10/27 06:47:05;;;;;;;;;;;13.00;99.90;;;;;;5020899;28;19962;-68
2022/10/27 06:49:31;;;;;;;;;;;13.10;99.90;;;;;;5004463;28;199434;-68
2022/10/27 06:51:59;;;;;;;;;;;13.10;99.90;;;;;;5020904;28;19921;-68
2022/10/27 06:54:25;;;;;;;;;;;13.10;99.90;;;;;;4978255;28;143521;-68
2022/10/27 06:56:51;;;;;;;;;;;13.20;99.90;;;;;;5021766;28;19921;-68
2022/10/27 06:59:17;;;;;;;;;;;13.20;99.90;;;;;;4949723;28;210506;-67
2022/10/27 07:01:42;;;;;;;;;;;13.20;99.90;;;;;;5026213;28;19921;-68
2022/10/27 07:04:08;;;;;;;;;;;13.20;99.90;;;;;;4976957;28;148885;-68
2022/10/27 07:06:34;;;;;;;;;;;13.20;99.90;;;;;;5026535;28;20357;-68
2022/10/27 07:09:00;;;;;;;;;;;13.30;99.90;;;;;;4990061;28;207503;-68
2022/10/27 07:11:27;;;;;;;;;;;13.20;99.90;;;;;;5020775;28;20029;-68
2022/10/27 07:13:54;;;;;;;;;;;13.30;99.90;;;;;;4962855;28;209875;-69
2022/10/27 07:16:20;;;;;;;;;;;13.30;99.90;;;;;;5024557;28;20378;-67
2022/10/27 07:18:46;;;;;;;;;;;13.40;99.90;;;;;;4986350;28;130402;-67
2022/10/27 07:21:12;;;;;;;;;;;13.50;99.90;;;;;;5026026;28;20268;-68
2022/10/27 07:23:38;;;;;;;;;;;13.50;99.90;;;;;;4977508;28;185596;-68
2022/10/27 07:26:04;;;;;;;;;;;13.60;99.90;;;;;;5015167;28;19917;-67
2022/10/27 07:28:30;;;;;;;;;;;13.60;99.90;;;;;;4976100;28;134407;-69
2022/10/27 07:30:56;;;;;;;;;;;13.60;99.90;;;;;;5019066;28;19925;-68
2022/10/27 07:33:22;;;;;;;;;;;13.70;99.90;;;;;;4981493;28;209157;-67
2022/10/27 07:35:49;;;;;;;;;;;13.70;99.90;;;;;;5018148;28;19925;-67
2022/10/27 07:38:15;;;;;;;;;;;13.80;99.90;;;;;;4969073;28;206108;-68
2022/10/27 07:40:41;;;;;;;;;;;13.80;99.90;;;;;;5038007;28;19921;-67
2022/10/27 07:43:08;;;;;;;;;;;13.80;99.90;;;;;;4972521;28;139240;-67
2022/10/27 07:45:34;;;;;;;;;;;14.00;99.90;;;;;;5013674;28;19937;-68
2022/10/27 07:48:00;;;;;;;;;;;14.00;99.90;;;;;;5002310;28;193422;-67
2022/10/27 07:50:28;;;;;;;;;;;14.00;99.90;;;;;;5001821;28;20388;-67
2022/10/27 07:52:55;;;;;;;;;;;14.10;99.90;;;;;;4978193;28;146451;-67
2022/10/27 07:55:22;;;;;;;;;;;14.10;99.90;;;;;;5020658;28;20294;-67
2022/10/27 07:57:58;;;;;;;;;;;14.10;99.90;;;;;;5005384;28;218644;-68
2022/10/27 08:00:24;;;;;;;;;;;14.10;99.90;;;;;;5008569;28;19921;-67
2022/10/27 08:02:50;;;;;;;;;;;14.20;99.90;;;;;;4994006;28;214825;-67
2022/10/27 08:05:16;;;;;;;;;;;14.20;99.90;;;;;;5039053;28;20301;-68
2022/10/27 08:07:42;;;;;;;;;;;14.30;99.90;;;;;;4968129;28;210899;-68
2022/10/27 08:10:09;;;;;;;;;;;14.30;99.90;;;;;;5034882;28;20304;-67
2022/10/27 08:12:40;;;;;;;;;;;14.40;99.90;;;;;;4986554;28;207229;-67
2022/10/27 08:15:07;;;;;;;;;;;14.50;99.90;;;;;;4994287;28;20374;-68
2022/10/27 08:17:33;;;;;;;;;;;14.50;99.90;;;;;;5004370;28;214343;-69
2022/10/27 08:19:59;;;;;;;;;;;14.50;99.90;;;;;;4995331;28;269180;-68
2022/10/27 08:22:25;;;;;;;;;;;14.60;99.90;;;;;;5035969;28;19921;-68
2022/10/27 08:24:51;;;;;;;;;;;14.60;99.90;;;;;;4946736;28;220394;-67
2022/10/27 08:27:17;;;;;;;;;;;14.60;99.90;;;;;;5027360;28;19922;-67
2022/10/27 08:29:43;;;;;;;;;;;14.60;99.90;;;;;;4988003;28;208281;-69
2022/10/27 08:32:09;;;;;;;;;;;14.60;99.90;;;;;;5019219;28;19944;-68
2022/10/27 08:34:35;;;;;;;;;;;14.70;99.90;;;;;;5005885;28;182416;-68
2022/10/27 08:37:01;;;;;;;;;;;14.70;99.90;;;;;;5052432;28;19982;-69
2022/10/27 08:39:27;;;;;;;;;;;14.80;99.90;;;;;;4977498;28;158336;-68
2022/10/27 08:41:56;;;;;;;;;;;14.80;99.90;;;;;;5019636;28;19921;-69
2022/10/27 08:44:31;;;;;;;;;;;14.80;99.90;;;;;;4975478;28;164407;-68
2022/10/27 08:47:04;;;;;;;;;;;14.90;99.90;;;;;;5056210;28;20180;-67
2022/10/27 08:49:40;;;;;;;;;;;15.00;99.90;;;;;;4986160;28;210163;-68
2022/10/27 08:52:09;;;;;;;;;;;15.00;99.90;;;;;;5006367;28;19928;-68
2022/10/27 08:54:36;;;;;;;;;;;15.10;99.90;;;;;;4970034;28;206458;-67
2022/10/27 08:57:03;;;;;;;;;;;15.10;99.90;;;;;;5023289;28;19921;-68
2022/10/27 08:59:30;;;;;;;;;;;15.20;99.90;;;;;;4974299;28;120028;-69
2022/10/27 09:02:04;;;;;;;;;;;15.30;99.90;;;;;;5035844;28;19922;-68
2022/10/27 09:04:52;;;;;;;;;;;15.30;99.90;;;;;;4972727;28;203725;-67
2022/10/27 09:07:24;;;;;;;;;;;15.40;99.90;;;;;;5008327;28;19918;-67
2022/10/27 09:09:56;;;;;;;;;;;15.50;99.90;;;;;;4962434;28;167158;-68
2022/10/27 09:12:22;;;;;;;;;;;15.60;99.90;;;;;;5036039;28;19922;-67
2022/10/27 09:14:56;;;;;;;;;;;15.70;99.90;;;;;;4954391;28;209828;-69
2022/10/27 09:17:27;;;;;;;;;;;15.80;99.90;;;;;;5022913;28;20306;-68
2022/10/27 09:20:03;;;;;;;;;;;15.90;99.90;;;;;;4977348;28;252264;-67
2022/10/27 09:22:30;;;;;;;;;;;16.00;99.90;;;;;;4991279;28;213487;-66
2022/10/27 09:25:00;;;;;;;;;;;16.10;99.90;;;;;;4977311;28;206297;-68
2022/10/27 09:27:26;;;;;;;;;;;16.20;99.90;;;;;;5020139;28;19917;-68
2022/10/27 09:29:52;;;;;;;;;;;16.40;99.90;;;;;;4987246;28;166077;-67
2022/10/27 09:32:22;;;;;;;;;;;16.50;99.90;;;;;;5017412;28;19921;-68
2022/10/27 09:34:57;;;;;;;;;;;16.60;99.90;;;;;;4961137;28;152543;-68
2022/10/27 09:37:23;;;;;;;;;;;16.70;99.90;;;;;;5012892;28;20899;-67
2022/10/27 09:39:49;;;;;;;;;;;16.80;99.90;;;;;;4950228;28;211957;-67
2022/10/27 09:42:16;;;;;;;;;;;16.90;99.90;;;;;;5028752;28;20294;-68
2022/10/27 09:45:00;;;;;;;;;;;17.00;99.90;;;;;;4976403;28;179226;-68
2022/10/27 09:47:28;;;;;;;;;;;17.10;99.90;;;;;;5020123;28;19921;-68
2022/10/27 09:49:55;;;;;;;;;;;17.20;99.90;;;;;;4963360;28;46236;-70
2022/10/27 09:52:24;;;;;;;;;;;17.20;99.90;;;;;;5022656;28;20405;-68
2022/10/27 09:54:51;;;;;;;;;;;17.20;99.90;;;;;;4956492;28;148550;-67
2022/10/27 09:57:18;;;;;;;;;;;17.20;99.90;;;;;;5020697;28;19921;-68
2022/10/27 09:59:50;;;;;;;;;;;17.30;99.90;;;;;;4991101;28;129167;-66
2022/10/27 10:02:24;;;;;;;;;;;17.30;99.90;;;;;;5021746;28;19927;-68
2022/10/27 10:04:51;;;;;;;;;;;17.40;99.90;;;;;;4943230;28;211396;-68
2022/10/27 10:07:28;;;;;;;;;;;17.50;99.90;;;;;;5025047;28;19921;-69
2022/10/27 10:10:00;;;;;;;;;;;17.50;99.90;;;;;;4979467;28;63119;-70
2022/10/27 10:12:28;;;;;;;;;;;17.70;99.90;;;;;;5019965;28;19952;-68
2022/10/27 10:15:14;;;;;;;;;;;17.70;99.90;;;;;;4974523;28;170815;-68
2022/10/27 10:17:41;;;;;;;;;;;17.80;99.90;;;;;;4970398;28;217948;-67
2022/10/27 10:20:22;;;;;;;;;;;17.90;99.90;;;;;;5007406;28;19917;-68
2022/10/27 10:22:49;;;;;;;;;;;18.00;99.90;;;;;;4965703;28;208056;-68
2022/10/27 10:25:21;;;;;;;;;;;18.00;99.90;;;;;;5019050;28;20386;-68
2022/10/27 10:27:55;;;;;;;;;;;18.10;99.90;;;;;;4951740;28;210646;-68
2022/10/27 10:30:21;;;;;;;;;;;18.10;99.90;;;;;;4985752;28;19917;-67
2022/10/27 10:32:48;;;;;;;;;;;18.30;99.90;;;;;;4984806;28;204043;-68
2022/10/27 10:35:32;;;;;;;;;;;18.30;99.90;;;;;;5017525;28;19932;-67
2022/10/27 10:37:58;;;;;;;;;;;18.40;99.90;;;;;;5001645;28;207839;-66
2022/10/27 10:40:26;;;;;;;;;;;18.50;99.90;;;;;;5009490;28;20416;-68
2022/10/27 10:43:18;;;;;;;;;;;18.60;99.90;;;;;;4970158;28;226785;-68
2022/10/27 10:45:48;;;;;;;;;;;18.60;99.90;;;;;;5007482;28;19922;-68
2022/10/27 10:48:14;;;;;;;;;;;18.70;99.90;;;;;;4966593;28;236620;-67
2022/10/27 10:50:45;;;;;;;;;;;18.80;99.90;;;;;;5012071;28;19931;-67
2022/10/27 10:53:20;;;;;;;;;;;18.90;99.90;;;;;;4967853;28;198117;-68
2022/10/27 10:55:46;;;;;;;;;;;19.00;99.90;;;;;;5015400;28;20299;-69
2022/10/27 10:58:14;;;;;;;;;;;19.00;99.90;;;;;;4979960;28;154874;-68
2022/10/27 11:01:00;;;;;;;;;;;19.10;99.90;;;;;;5032380;28;19928;-69
2022/10/27 11:03:28;;;;;;;;;;;19.20;99.90;;;;;;4965193;28;111784;-67
2022/10/27 11:05:56;;;;;;;;;;;19.20;99.90;;;;;;5018687;28;19927;-68
2022/10/27 11:08:23;;;;;;;;;;;19.40;99.90;;;;;;4978675;28;208422;-68
2022/10/27 11:10:51;;;;;;;;;;;19.40;99.90;;;;;;5019980;28;19921;-68
2022/10/27 11:13:17;;;;;;;;;;;19.50;99.90;;;;;;4969896;28;210694;-68
2022/10/27 11:15:42;;;;;;;;;;;19.50;99.90;;;;;;5023022;28;19917;-66
2022/10/27 11:18:11;;;;;;;;;;;19.60;99.90;;;;;;4974576;28;214749;-68
2022/10/27 11:20:37;;;;;;;;;;;19.70;99.90;;;;;;5012305;28;19925;-67
2022/10/27 11:23:29;;;;;;;;;;;19.70;99.90;;;;;;4969037;28;218832;-68
2022/10/27 11:25:56;;;;;;;;;;;19.80;99.90;;;;;;5002872;28;20290;-67
2022/10/27 11:28:22;;;;;;;;;;;19.80;99.90;;;;;;4950751;28;38808;-68
2022/10/27 11:30:54;;;;;;;;;;;19.80;99.90;;;;;;4988077;28;19957;-68
2022/10/27 11:33:23;;;;;;;;;;;19.80;99.90;;;;;;4935566;28;220404;-67
2022/10/27 11:35:58;;;;;;;;;;;19.80;99.90;;;;;;4988997;28;19921;-67
2022/10/27 11:38:30;;;;;;;;;;;19.70;99.90;;;;;;4935829;28;199503;-68
2022/10/27 11:41:04;;;;;;;;;;;19.70;99.90;;;;;;4988669;28;19921;-69
2022/10/27 11:43:33;;;;;;;;;;;19.70;99.90;;;;;;4954049;28;196282;-68
2022/10/27 11:46:02;;;;;;;;;;;19.90;99.90;;;;;;4988597;28;19928;-68
2022/10/27 11:48:32;;;;;;;;;;;20.20;99.90;;;;;;4937032;28;204631;-68
2022/10/27 11:51:04;;;;;;;;;;;20.60;99.90;;;;;;4992083;28;21694;-67
2022/10/27 11:53:30;;;;;;;;;;;21.20;99.90;;;;;;4975489;28;145523;-67
2022/10/27 11:56:08;;;;;;;;;;;21.20;99.90;;;;;;4987216;28;19921;-68
2022/10/27 11:58:34;;;;;;;;;;;21.30;99.90;;;;;;4960849;28;129562;-67
2022/10/27 12:01:22;;;;;;;;;;;21.60;99.90;;;;;;5002231;28;20059;-68
2022/10/27 12:03:48;;;;;;;;;;;21.90;99.90;;;;;;4955543;28;210851;-68
2022/10/27 12:06:17;;;;;;;;;;;22.60;99.90;;;;;;5026063;28;19971;-68
2022/10/27 12:08:52;;;;;;;;;;;23.30;99.90;;;;;;4968428;28;183884;-69
2022/10/27 12:11:21;;;;;;;;;;;24.30;99.90;;;;;;5019907;28;19921;-69
2022/10/27 12:13:56;;;;;;;;;;;25.30;99.90;;;;;;4983551;28;207253;-68
2022/10/27 12:16:27;;;;;;;;;;;26.00;99.90;;;;;;5014899;28;19928;-68
2022/10/27 12:18:57;;;;;;;;;;;26.30;99.90;;;;;;4984248;28;209168;-69
2022/10/27 12:21:35;;;;;;;;;;;25.60;98.40;;;;;;5051689;28;20279;-69
2022/10/27 12:24:03;;;;;;;;;;;25.00;99.50;;;;;;5005582;28;191879;-67
2022/10/27 12:26:32;;;;;;;;;;;24.60;99.90;;;;;;5033112;28;19924;-67
2022/10/27 12:29:00;;;;;;;;;;;24.50;99.90;;;;;;4976576;28;207702;-67
2022/10/27 12:31:28;;;;;;;;;;;24.30;99.90;;;;;;5023873;28;19921;-69
2022/10/27 12:33:59;;;;;;;;;;;24.30;99.90;;;;;;4971497;28;200635;-67
2022/10/27 12:36:31;;;;;;;;;;;24.40;99.90;;;;;;5026733;28;19917;-67
2022/10/27 12:38:57;;;;;;;;;;;24.50;99.90;;;;;;4981049;28;197658;-68
2022/10/27 12:41:29;;;;;;;;;;;24.90;99.90;;;;;;5041894;28;19931;-67
2022/10/27 12:44:03;;;;;;;;;;;25.20;99.90;;;;;;4993163;28;207535;-68
2022/10/27 12:46:48;;;;;;;;;;;25.30;99.90;;;;;;5019671;28;20287;-67
2022/10/27 12:49:20;;;;;;;;;;;25.60;99.90;;;;;;4973227;28;209065;-68
2022/10/27 12:51:58;;;;;;;;;;;25.90;99.30;;;;;;4999750;28;19924;-67
2022/10/27 12:54:48;;;;;;;;;;;26.10;99.90;;;;;;4957670;28;145483;-70
2022/10/27 12:57:33;;;;;;;;;;;26.50;99.70;;;;;;5048687;28;19924;-68
2022/10/27 13:00:12;;;;;;;;;;;27.00;99.50;;;;;;4956889;28;210086;-67
2022/10/27 13:02:46;;;;;;;;;;;27.80;98.90;;;;;;5017639;28;205967;-68
2022/10/27 13:05:12;;;;;;;;;;;28.00;97.70;;;;;;4977448;28;19921;-67
2022/10/27 13:07:43;;;;;;;;;;;27.40;97.90;;;;;;4985121;28;213631;-69
2022/10/27 13:10:21;;;;;;;;;;;26.60;97.60;;;;;;5023554;28;19921;-68
2022/10/27 13:12:50;;;;;;;;;;;25.90;97.60;;;;;;4968599;28;208565;-67
2022/10/27 13:15:31;;;;;;;;;;;25.30;98.40;;;;;;5022351;28;19918;-69
2022/10/27 13:17:57;;;;;;;;;;;24.70;98.50;;;;;;4976367;28;147046;-69
2022/10/27 13:20:26;;;;;;;;;;;24.20;98.80;;;;;;5048705;28;19925;-68
2022/10/27 13:22:56;;;;;;;;;;;23.80;99.60;;;;;;4972753;28;210357;-69
2022/10/27 13:25:25;;;;;;;;;;;23.50;99.70;;;;;;5024844;28;19917;-68
2022/10/27 13:27:53;;;;;;;;;;;23.30;99.70;;;;;;4960920;28;204510;-69
2022/10/27 13:30:22;;;;;;;;;;;23.80;99.90;;;;;;5012711;28;19928;-68
2022/10/27 13:32:48;;;;;;;;;;;24.20;99.60;;;;;;4968264;28;207046;-69
2022/10/27 13:35:13;;;;;;;;;;;23.90;99.70;;;;;;5034496;28;19917;-69
2022/10/27 13:38:09;;;;;;;;;;;23.60;99.90;;;;;;4957230;28;214471;-69
2022/10/27 13:40:36;;;;;;;;;;;23.20;99.90;;;;;;5012096;28;19932;-68
2022/10/27 13:43:31;;;;;;;;;;;22.90;99.90;;;;;;4976809;28;91567;-68
2022/10/27 13:45:57;;;;;;;;;;;22.60;99.90;;;;;;5000810;28;20324;-68
2022/10/27 13:48:23;;;;;;;;;;;22.20;99.90;;;;;;4956380;28;204233;-68
2022/10/27 13:50:55;;;;;;;;;;;21.90;99.90;;;;;;5008166;28;19967;-69
2022/10/27 13:53:25;;;;;;;;;;;21.70;99.90;;;;;;4976689;28;215304;-69
2022/10/27 13:55:55;;;;;;;;;;;21.50;99.90;;;;;;5024701;28;20511;-69
2022/10/27 13:58:30;;;;;;;;;;;21.20;99.90;;;;;;4965820;28;195899;-68
2022/10/27 14:00:59;;;;;;;;;;;20.90;99.90;;;;;;5014266;28;19924;-68
2022/10/27 14:03:37;;;;;;;;;;;20.70;99.90;;;;;;4953243;28;189509;-68
2022/10/27 14:06:12;;;;;;;;;;;20.60;99.90;;;;;;5022565;28;19946;-69
2022/10/27 14:08:44;;;;;;;;;;;20.40;99.90;;;;;;4992804;28;214831;-69
2022/10/27 14:11:18;;;;;;;;;;;20.30;99.90;;;;;;5010794;28;19928;-70
2022/10/27 14:13:46;;;;;;;;;;;20.20;99.90;;;;;;5004951;28;155005;-71
2022/10/27 14:16:15;;;;;;;;;;;20.00;99.90;;;;;;5006775;28;19917;-70
2022/10/27 14:18:41;;;;;;;;;;;19.90;99.90;;;;;;4995923;28;206365;-70
2022/10/27 14:21:17;;;;;;;;;;;19.70;99.90;;;;;;5003488;28;19936;-70